Time;durP1;ratioP1;P1;durP2;ratioP2;P2;SDS_P1;SDS_P2;PMS_P1;PMS_P2;Temp;Humidity;BMP_temperature;BMP_pressure;BME280_temperature;BME280_humidity;BME280_pressure;Samples;Min_cycle;Max_cycle;Signal;HPM_P1;HPM_P2
2022/02/13 00:01:49;;;;;;;9.02;6.75;;;-1.70;99.90;;;;;;5083554;28;20221;-93
2022/02/13 00:04:17;;;;;;;10.98;7.40;;;-1.70;99.90;;;;;;5083418;28;20204;-93
2022/02/13 00:06:44;;;;;;;9.05;6.43;;;-1.70;99.90;;;;;;5087311;28;20212;-93
2022/02/13 00:09:11;;;;;;;9.20;5.97;;;-1.80;99.90;;;;;;5090434;28;20199;-92
2022/02/13 00:11:40;;;;;;;9.35;7.05;;;-1.80;99.90;;;;;;5086826;28;20227;-93
2022/02/13 00:14:07;;;;;;;6.80;6.10;;;-1.80;99.90;;;;;;5081203;28;20235;-93
2022/02/13 00:16:36;;;;;;;9.60;6.88;;;-1.80;99.90;;;;;;5077199;28;20257;-91
2022/02/13 00:19:03;;;;;;;12.73;7.75;;;-1.80;99.90;;;;;;5076259;28;20224;-93
2022/02/13 00:21:30;;;;;;;10.48;7.53;;;-1.80;99.90;;;;;;5078016;28;20256;-93
2022/02/13 00:23:58;;;;;;;9.75;7.05;;;-1.80;99.90;;;;;;5078638;28;20200;-94
2022/02/13 00:26:24;;;;;;;8.90;6.32;;;-1.80;99.90;;;;;;5075850;28;20274;-93
2022/02/13 00:28:53;;;;;;;9.40;6.75;;;-1.80;99.90;;;;;;5076312;28;20200;-92
2022/02/13 00:31:20;;;;;;;10.27;6.95;;;-1.80;99.90;;;;;;5076552;28;20307;-93
2022/02/13 00:33:46;;;;;;;8.35;7.15;;;-1.80;99.90;;;;;;5077537;28;20216;-92
2022/02/13 00:36:13;;;;;;;14.13;7.60;;;-1.90;99.90;;;;;;5079177;28;20208;-93
2022/02/13 00:38:40;;;;;;;10.93;7.68;;;-1.80;99.90;;;;;;5080718;28;20230;-94
2022/02/13 00:41:07;;;;;;;9.43;6.85;;;-1.80;99.90;;;;;;5086091;28;20203;-93
2022/02/13 00:43:34;;;;;;;8.05;6.90;;;-1.80;99.90;;;;;;5099065;28;20210;-93
2022/02/13 00:46:02;;;;;;;8.93;6.43;;;-1.80;99.90;;;;;;5097573;28;20230;-93
2022/02/13 00:48:29;;;;;;;7.70;5.60;;;-1.90;99.90;;;;;;5098724;28;20199;-93
2022/02/13 00:50:56;;;;;;;9.13;6.90;;;-1.80;99.90;;;;;;5097706;28;20275;-93
2022/02/13 00:53:23;;;;;;;8.85;6.85;;;-1.70;99.90;;;;;;5097057;28;20211;-93
2022/02/13 00:55:50;;;;;;;8.45;6.60;;;-1.60;99.90;;;;;;5097789;28;20646;-93
2022/02/13 00:58:19;;;;;;;8.85;6.20;;;-1.60;99.90;;;;;;5097601;28;20280;-94
2022/02/13 01:00:46;;;;;;;7.85;6.13;;;-1.60;99.90;;;;;;5099180;28;20569;-94
2022/02/13 01:03:14;;;;;;;7.80;6.25;;;-1.70;99.90;;;;;;5099375;28;20224;-93
2022/02/13 01:05:41;;;;;;;10.77;6.47;;;-1.70;99.90;;;;;;5102926;28;20208;-94
2022/02/13 01:08:08;;;;;;;8.55;6.40;;;-1.70;99.90;;;;;;5100576;28;20214;-93
2022/02/13 01:10:35;;;;;;;7.35;6.43;;;-1.70;99.90;;;;;;5151759;22;20228;-77
2022/02/13 01:13:02;;;;;;;9.48;6.65;;;-1.80;99.90;;;;;;5078046;28;20712;-76
2022/02/13 01:15:29;;;;;;;10.07;7.40;;;-1.70;99.90;;;;;;5077987;28;20223;-76
2022/02/13 01:17:56;;;;;;;10.73;6.88;;;-1.60;99.90;;;;;;5071842;28;20583;-75
2022/02/13 01:20:24;;;;;;;9.27;7.40;;;-1.60;99.90;;;;;;5071324;28;20232;-75
2022/02/13 01:22:51;;;;;;;10.30;6.55;;;-1.70;99.90;;;;;;5070781;28;20238;-75
2022/02/13 01:25:17;;;;;;;8.63;6.57;;;-1.80;99.90;;;;;;5071239;28;20707;-75
2022/02/13 01:27:44;;;;;;;9.57;6.15;;;-1.80;99.90;;;;;;5071394;28;20762;-75
2022/02/13 01:30:12;;;;;;;6.65;5.95;;;-1.80;99.90;;;;;;5071620;28;20200;-74
2022/02/13 01:32:39;;;;;;;10.73;7.00;;;-1.80;99.90;;;;;;5071082;28;20208;-76
2022/02/13 01:35:07;;;;;;;8.90;6.25;;;-1.80;99.90;;;;;;5071288;28;20248;-75
2022/02/13 01:37:35;;;;;;;7.03;6.32;;;-1.70;99.90;;;;;;5071258;28;20303;-75
2022/02/13 01:40:01;;;;;;;8.48;5.95;;;-1.60;99.90;;;;;;5070667;28;20220;-75
2022/02/13 01:42:28;;;;;;;10.00;6.72;;;-1.60;99.90;;;;;;5079921;28;20266;-75
2022/02/13 01:44:57;;;;;;;6.70;6.00;;;-1.60;99.90;;;;;;5091615;28;20199;-75
2022/02/13 01:47:23;;;;;;;7.05;5.80;;;-1.80;99.90;;;;;;5090732;28;20220;-76
2022/02/13 01:49:50;;;;;;;7.78;6.55;;;-1.80;99.90;;;;;;5090220;28;20192;-75
2022/02/13 01:52:17;;;;;;;10.88;6.43;;;-1.90;99.90;;;;;;5087549;28;20204;-75
2022/02/13 01:54:45;;;;;;;11.70;7.25;;;-1.90;99.90;;;;;;5086166;28;20597;-75
2022/02/13 01:57:13;;;;;;;10.10;7.35;;;-1.90;99.90;;;;;;5071054;28;20243;-75
2022/02/13 01:59:40;;;;;;;8.93;7.18;;;-1.90;99.90;;;;;;5070589;28;20250;-75
2022/02/13 02:02:06;;;;;;;9.75;7.60;;;-1.90;99.90;;;;;;5070749;28;20581;-75
2022/02/13 02:04:33;;;;;;;8.55;6.97;;;-1.90;99.90;;;;;;5075976;28;20200;-76
2022/02/13 02:07:01;;;;;;;7.72;6.68;;;-1.90;99.90;;;;;;5078978;28;20699;-75
2022/02/13 02:09:27;;;;;;;9.65;7.32;;;-2.00;99.90;;;;;;5071121;28;20193;-76
2022/02/13 02:11:56;;;;;;;9.85;6.90;;;-2.00;99.90;;;;;;5070921;28;20208;-76
2022/02/13 02:14:23;;;;;;;10.85;6.85;;;-2.10;99.90;;;;;;5070456;28;20204;-75
2022/02/13 02:16:49;;;;;;;10.23;7.65;;;-2.10;99.90;;;;;;5070586;28;20712;-77
2022/02/13 02:19:16;;;;;;;9.65;7.40;;;-2.10;99.90;;;;;;5070834;28;20235;-76
2022/02/13 02:21:44;;;;;;;8.57;5.93;;;-2.20;99.90;;;;;;5075612;28;20200;-76
2022/02/13 02:24:13;;;;;;;9.65;7.22;;;-2.10;99.90;;;;;;5070092;28;20594;-76
2022/02/13 02:26:39;;;;;;;10.23;7.15;;;-2.20;99.90;;;;;;5070804;28;20224;-75
2022/02/13 02:29:06;;;;;;;9.27;7.45;;;-2.20;99.90;;;;;;5070796;28;20833;-75
2022/02/13 02:31:33;;;;;;;8.40;6.85;;;-2.20;99.90;;;;;;5070902;28;20206;-75
2022/02/13 02:34:00;;;;;;;8.50;6.93;;;-2.20;99.90;;;;;;5070077;28;20226;-75
2022/02/13 02:36:27;;;;;;;10.27;6.80;;;-2.30;99.90;;;;;;5070272;28;20220;-76
2022/02/13 02:38:54;;;;;;;8.23;6.03;;;-2.30;99.90;;;;;;5070745;28;20203;-75
2022/02/13 02:41:22;;;;;;;8.18;6.25;;;-2.20;99.90;;;;;;5070221;28;20204;-75
2022/02/13 02:43:49;;;;;;;9.05;6.38;;;-2.00;99.90;;;;;;5070181;28;20200;-75
2022/02/13 02:46:16;;;;;;;8.85;6.28;;;-1.50;99.90;;;;;;5070341;28;20235;-76
2022/02/13 02:48:43;;;;;;;7.10;5.93;;;-1.10;99.90;;;;;;5070347;28;20204;-75
2022/02/13 02:51:09;;;;;;;7.75;5.88;;;-0.60;99.90;;;;;;5075479;28;20655;-75
2022/02/13 02:53:37;;;;;;;8.18;6.70;;;-0.20;99.90;;;;;;5090297;28;20543;-75
2022/02/13 02:56:05;;;;;;;6.80;4.90;;;0.10;99.90;;;;;;5094056;28;20219;-76
2022/02/13 02:58:33;;;;;;;8.88;6.38;;;0.40;99.90;;;;;;5108476;28;20203;-76
2022/02/13 03:01:00;;;;;;;8.43;5.60;;;0.50;99.90;;;;;;5097031;28;20219;-75
2022/02/13 03:03:27;;;;;;;6.63;5.32;;;0.70;99.90;;;;;;5095638;28;20338;-76
2022/02/13 03:05:54;;;;;;;6.68;5.13;;;0.70;99.90;;;;;;5091902;28;20227;-75
2022/02/13 03:08:21;;;;;;;6.45;5.43;;;0.80;99.90;;;;;;5091973;28;20230;-76
2022/02/13 03:10:49;;;;;;;9.13;5.68;;;0.80;99.90;;;;;;5092043;28;20215;-75
2022/02/13 03:13:16;;;;;;;8.65;5.53;;;0.80;99.90;;;;;;5090495;28;20631;-76
2022/02/13 03:15:45;;;;;;;7.75;6.15;;;0.80;99.90;;;;;;5090700;28;20230;-74
2022/02/13 03:18:12;;;;;;;7.00;5.43;;;0.90;99.90;;;;;;5089887;28;20693;-75
2022/02/13 03:20:39;;;;;;;8.23;5.47;;;0.90;99.90;;;;;;5090488;28;20234;-75
2022/02/13 03:23:06;;;;;;;6.10;5.15;;;0.90;99.90;;;;;;5072965;28;20204;-75
2022/02/13 03:25:32;;;;;;;5.35;4.82;;;0.90;99.90;;;;;;5069904;28;20212;-76
2022/02/13 03:27:59;;;;;;;8.27;6.00;;;0.90;99.90;;;;;;5070078;28;20207;-75
2022/02/13 03:30:26;;;;;;;9.75;5.90;;;0.90;99.90;;;;;;5069739;28;20211;-75
2022/02/13 03:32:54;;;;;;;6.68;5.82;;;0.90;99.90;;;;;;5069680;28;20557;-75
2022/02/13 03:35:21;;;;;;;7.32;5.25;;;0.90;99.90;;;;;;5069843;28;20204;-75
2022/02/13 03:37:48;;;;;;;6.10;5.13;;;0.90;99.90;;;;;;5069866;28;20204;-75
2022/02/13 03:40:15;;;;;;;7.85;5.68;;;1.00;99.90;;;;;;5073652;28;20227;-75
2022/02/13 03:42:41;;;;;;;9.75;5.25;;;1.10;99.90;;;;;;5072977;28;20204;-75
2022/02/13 03:45:09;;;;;;;7.50;6.22;;;1.10;99.90;;;;;;5073454;28;20212;-76
2022/02/13 03:47:35;;;;;;;8.00;5.70;;;1.20;99.90;;;;;;5073615;28;20575;-75
2022/02/13 03:50:04;;;;;;;8.50;5.20;;;1.10;99.90;;;;;;5073455;28;20192;-75
2022/02/13 03:52:31;;;;;;;6.93;5.70;;;1.20;99.90;;;;;;5077914;28;20200;-76
2022/02/13 03:54:59;;;;;;;6.97;4.78;;;1.20;99.90;;;;;;5073099;28;20196;-75
2022/02/13 03:57:26;;;;;;;6.47;5.22;;;1.10;99.90;;;;;;5073536;28;20320;-76
2022/02/13 03:59:53;;;;;;;6.93;5.55;;;1.10;99.90;;;;;;5073454;28;20221;-76
2022/02/13 04:02:20;;;;;;;8.57;7.63;;;1.10;99.90;;;;;;5072905;28;20215;-75
2022/02/13 04:04:46;;;;;;;8.38;6.57;;;1.10;99.90;;;;;;5073533;28;20205;-75
2022/02/13 04:07:15;;;;;;;6.45;5.20;;;1.10;99.90;;;;;;5073008;28;20224;-75
2022/02/13 04:09:42;;;;;;;7.05;5.30;;;1.10;99.90;;;;;;5073600;28;20291;-75
2022/02/13 04:12:10;;;;;;;7.35;5.97;;;1.10;99.90;;;;;;5072478;28;20204;-74
2022/02/13 04:14:37;;;;;;;5.72;5.20;;;1.20;99.90;;;;;;5073245;28;20695;-75
2022/02/13 04:17:04;;;;;;;7.15;4.82;;;1.20;99.90;;;;;;5073015;28;20224;-75
2022/02/13 04:19:31;;;;;;;5.30;4.80;;;1.10;99.90;;;;;;5072731;28;20688;-75
2022/02/13 04:21:58;;;;;;;5.05;4.40;;;1.20;99.90;;;;;;5077457;28;20197;-75
2022/02/13 04:24:26;;;;;;;7.07;5.30;;;1.20;99.90;;;;;;5072286;28;20201;-75
2022/02/13 04:26:53;;;;;;;9.25;5.15;;;1.30;99.90;;;;;;5072896;28;20220;-76
2022/02/13 04:29:20;;;;;;;6.95;4.53;;;1.20;99.90;;;;;;5072820;28;20258;-75
2022/02/13 04:31:47;;;;;;;6.43;4.57;;;1.20;99.90;;;;;;5072646;28;20888;-76
2022/02/13 04:34:14;;;;;;;6.32;4.85;;;1.20;99.90;;;;;;5072262;28;20664;-76
2022/02/13 04:36:40;;;;;;;6.63;5.10;;;1.10;99.90;;;;;;5072502;28;20221;-75
2022/02/13 04:39:07;;;;;;;7.53;5.28;;;1.20;99.90;;;;;;5072475;28;20283;-75
2022/02/13 04:41:35;;;;;;;6.25;3.95;;;1.10;99.90;;;;;;5072720;28;20227;-75
2022/02/13 04:44:02;;;;;;;6.70;5.05;;;1.20;99.90;;;;;;5071556;28;20200;-75
2022/02/13 04:46:28;;;;;;;5.45;4.53;;;1.20;99.90;;;;;;5072417;28;20746;-75
2022/02/13 04:48:55;;;;;;;5.88;4.78;;;1.20;99.90;;;;;;5072200;28;20204;-75
2022/02/13 04:51:22;;;;;;;5.00;4.30;;;1.20;99.90;;;;;;5076416;28;20204;-75
2022/02/13 04:53:49;;;;;;;6.05;4.72;;;1.30;99.90;;;;;;5072057;28;20200;-76
2022/02/13 04:56:16;;;;;;;4.95;4.10;;;1.20;99.90;;;;;;5071840;28;20601;-76
2022/02/13 04:58:44;;;;;;;5.90;3.95;;;1.30;99.90;;;;;;5072308;28;20204;-75
2022/02/13 05:01:11;;;;;;;4.68;4.20;;;1.40;99.90;;;;;;5071741;28;20216;-75
2022/02/13 05:03:37;;;;;;;6.32;4.40;;;1.40;99.90;;;;;;5071714;28;20219;-76
2022/02/13 05:06:05;;;;;;;5.38;4.43;;;1.50;99.90;;;;;;5071902;28;20217;-75
2022/02/13 05:08:32;;;;;;;8.07;5.07;;;1.60;99.90;;;;;;5071931;28;20281;-75
2022/02/13 05:10:59;;;;;;;5.75;4.13;;;1.60;99.90;;;;;;5068712;28;20203;-75
2022/02/13 05:13:25;;;;;;;7.57;4.90;;;1.60;99.90;;;;;;5070024;28;20204;-75
2022/02/13 05:15:53;;;;;;;5.50;4.28;;;1.60;99.90;;;;;;5067163;28;20329;-75
2022/02/13 05:18:20;;;;;;;4.80;3.70;;;1.60;99.90;;;;;;5071794;28;20207;-75
2022/02/13 05:20:47;;;;;;;5.05;3.97;;;1.60;99.90;;;;;;5073119;28;20226;-75
2022/02/13 05:23:14;;;;;;;5.00;4.50;;;1.60;99.90;;;;;;5073596;28;20196;-75
2022/02/13 05:25:40;;;;;;;4.80;4.30;;;1.60;99.90;;;;;;5071601;28;20227;-74
2022/02/13 05:28:07;;;;;;;5.00;4.50;;;1.60;99.90;;;;;;5071543;28;20208;-75
2022/02/13 05:30:34;;;;;;;4.90;4.40;;;1.60;99.90;;;;;;5071615;28;20199;-75
2022/02/13 05:33:02;;;;;;;5.30;4.50;;;1.60;99.90;;;;;;5071184;28;20687;-75
2022/02/13 05:35:28;;;;;;;6.07;3.85;;;1.60;99.90;;;;;;5071803;28;20224;-75
2022/02/13 05:37:55;;;;;;;6.55;4.45;;;1.70;99.90;;;;;;5071319;28;20204;-75
2022/02/13 05:40:22;;;;;;;5.50;3.63;;;1.70;99.90;;;;;;5071305;28;20754;-75
2022/02/13 05:42:49;;;;;;;5.50;4.32;;;1.70;99.90;;;;;;5070586;28;20223;-75
2022/02/13 05:45:15;;;;;;;5.68;4.40;;;1.70;99.90;;;;;;5070949;28;20215;-75
2022/02/13 05:47:46;;;;;;;4.95;4.25;;;1.70;99.90;;;;;;5071265;28;20201;-75
2022/02/13 05:50:14;;;;;;;6.78;4.40;;;1.70;99.90;;;;;;5071046;28;20196;-75
2022/02/13 05:52:41;;;;;;;7.63;4.82;;;1.70;99.90;;;;;;5075525;28;20209;-74
2022/02/13 05:55:08;;;;;;;5.75;4.03;;;1.80;99.90;;;;;;5070577;28;20197;-75
2022/02/13 05:57:35;;;;;;;5.38;4.65;;;1.80;99.90;;;;;;5071253;28;20204;-74
2022/02/13 06:00:02;;;;;;;8.73;4.63;;;1.80;99.90;;;;;;5070681;28;20216;-76
2022/02/13 06:02:28;;;;;;;5.60;4.10;;;1.80;99.90;;;;;;5069776;28;20204;-74
2022/02/13 06:04:55;;;;;;;6.82;4.45;;;1.70;99.90;;;;;;5071118;28;20208;-75
2022/02/13 06:07:23;;;;;;;6.25;4.60;;;1.80;99.90;;;;;;5070484;28;20311;-75
2022/02/13 06:09:50;;;;;;;7.47;4.50;;;1.80;99.90;;;;;;5070966;28;20597;-75
2022/02/13 06:12:16;;;;;;;6.38;4.70;;;1.70;99.90;;;;;;5069658;28;20215;-75
2022/02/13 06:14:43;;;;;;;5.45;4.95;;;1.70;99.90;;;;;;5070911;28;20197;-74
2022/02/13 06:17:10;;;;;;;5.80;4.55;;;1.70;99.90;;;;;;5070594;28;20654;-74
2022/02/13 06:19:36;;;;;;;5.65;4.47;;;1.70;99.90;;;;;;5070551;28;20686;-75
2022/02/13 06:22:04;;;;;;;10.02;4.35;;;1.70;99.90;;;;;;5074686;28;20223;-75
2022/02/13 06:24:32;;;;;;;7.88;4.88;;;1.70;99.90;;;;;;5070199;28;20203;-75
2022/02/13 06:26:58;;;;;;;5.45;4.50;;;1.60;99.90;;;;;;5070662;28;20228;-75
2022/02/13 06:29:25;;;;;;;5.22;4.38;;;1.70;99.90;;;;;;5070189;28;20676;-74
2022/02/13 06:31:52;;;;;;;5.40;4.30;;;1.60;99.90;;;;;;5070536;28;20684;-74
2022/02/13 06:34:19;;;;;;;5.78;4.18;;;1.70;99.90;;;;;;5069891;28;20215;-74
2022/02/13 06:36:46;;;;;;;6.55;4.20;;;1.60;99.90;;;;;;5070124;28;20928;-74
2022/02/13 06:39:13;;;;;;;5.35;4.10;;;1.60;99.90;;;;;;5070354;28;20208;-75
2022/02/13 06:41:41;;;;;;;5.55;4.40;;;1.60;99.90;;;;;;5070206;28;20235;-75
2022/02/13 06:44:07;;;;;;;6.65;5.05;;;1.60;99.90;;;;;;5069778;28;20204;-75
2022/02/13 06:46:34;;;;;;;6.00;4.50;;;1.60;99.90;;;;;;5070529;28;20468;-76
2022/02/13 06:49:01;;;;;;;9.35;4.32;;;1.60;99.90;;;;;;5070460;28;20766;-76
2022/02/13 06:51:28;;;;;;;6.22;4.57;;;1.70;99.90;;;;;;5074686;28;20665;-77
2022/02/13 06:53:55;;;;;;;7.20;4.50;;;1.70;99.90;;;;;;5068991;28;20566;-78
2022/02/13 06:56:21;;;;;;;5.00;4.00;;;1.80;99.90;;;;;;5069881;28;20588;-77
2022/02/13 06:58:50;;;;;;;4.70;4.18;;;1.90;99.90;;;;;;5070019;28;20211;-75
2022/02/13 07:01:16;;;;;;;5.93;4.20;;;1.90;99.90;;;;;;5070166;28;20224;-78
2022/02/13 07:03:43;;;;;;;6.00;4.60;;;1.80;99.90;;;;;;5069854;28;20200;-76
2022/02/13 07:06:10;;;;;;;5.82;4.60;;;1.90;99.90;;;;;;5069820;28;20923;-77
2022/02/13 07:08:37;;;;;;;7.43;4.10;;;1.90;99.90;;;;;;5070419;28;20211;-76
2022/02/13 07:11:03;;;;;;;7.88;4.78;;;1.90;99.90;;;;;;5090879;22;20225;-93
2022/02/13 07:13:33;;;;;;;10.55;4.80;;;1.90;99.90;;;;;;5063760;28;20200;-93
2022/02/13 07:16:01;;;;;;;7.55;4.85;;;1.90;99.90;;;;;;5064415;28;20221;-93
2022/02/13 07:18:28;;;;;;;5.15;4.13;;;1.90;99.90;;;;;;5064645;28;20197;-93
2022/02/13 07:20:55;;;;;;;7.20;4.38;;;1.90;99.90;;;;;;5063259;28;20634;-93
2022/02/13 07:23:22;;;;;;;5.10;4.10;;;2.00;99.90;;;;;;5072742;28;20181;-95
2022/02/13 07:25:50;;;;;;;6.55;4.35;;;2.00;99.90;;;;;;5052453;28;20206;-93
2022/02/13 07:31:03;;;;;;;6.00;5.30;;;2.10;99.90;;;;;;5043297;28;20208;-92
2022/02/13 07:33:30;;;;;;;4.82;4.15;;;2.10;99.90;;;;;;5039524;28;20557;-93
2022/02/13 07:35:57;;;;;;;5.97;4.38;;;2.20;99.90;;;;;;5039873;28;20285;-93
2022/02/13 07:38:24;;;;;;;4.53;4.13;;;2.30;99.90;;;;;;5040070;28;20209;-92
2022/02/13 07:40:51;;;;;;;9.13;4.57;;;2.40;99.90;;;;;;5039124;28;20221;-92
2022/02/13 07:43:18;;;;;;;4.70;4.30;;;2.50;99.90;;;;;;5044288;28;20201;-94
2022/02/13 07:45:45;;;;;;;5.70;4.75;;;2.80;99.90;;;;;;5046679;28;20681;-93
2022/02/13 07:48:14;;;;;;;5.70;3.97;;;3.40;99.90;;;;;;5049734;28;20212;-94
2022/02/13 07:50:41;;;;;;;5.50;4.32;;;4.60;99.90;;;;;;5054159;28;20281;-94
2022/02/13 07:53:08;;;;;;;5.07;4.10;;;5.60;99.90;;;;;;5050815;28;20208;-95
2022/02/13 07:55:35;;;;;;;5.47;3.90;;;6.80;99.70;;;;;;5056302;28;20210;-93
2022/02/13 07:58:01;;;;;;;4.22;3.65;;;7.10;98.30;;;;;;5049386;28;20201;-93
2022/02/13 08:00:28;;;;;;;8.52;3.90;;;7.60;97.70;;;;;;5048394;28;20235;-94
2022/02/13 08:02:55;;;;;;;6.05;3.75;;;8.20;97.60;;;;;;5049685;28;20216;-93
2022/02/13 08:05:23;;;;;;;5.32;4.05;;;8.90;96.80;;;;;;5050649;28;20204;-92
2022/02/13 08:07:51;;;;;;;4.60;4.00;;;9.60;95.40;;;;;;5051282;28;20216;-92
2022/02/13 08:10:19;;;;;;;6.18;3.90;;;10.40;93.70;;;;;;5051866;28;20216;-94
2022/02/13 08:12:46;;;;;;;4.30;3.90;;;10.40;93.30;;;;;;5057395;28;20283;-93
2022/02/13 08:15:14;;;;;;;4.50;3.67;;;11.10;92.90;;;;;;5057361;28;20213;-94
2022/02/13 08:17:41;;;;;;;5.95;4.78;;;11.50;91.90;;;;;;5059699;28;20225;-94
2022/02/13 08:20:14;;;;;;;5.97;4.10;;;11.50;91.70;;;;;;5056157;28;20253;-93
2022/02/13 08:22:45;;;;;;;4.82;4.30;;;11.60;91.70;;;;;;5059589;28;20220;-96
2022/02/13 08:25:12;;;;;;;5.78;3.95;;;11.90;91.50;;;;;;5058889;28;20193;-96
2022/02/13 08:27:39;;;;;;;6.95;4.13;;;12.30;90.70;;;;;;5059570;28;20212;-95
2022/02/13 08:30:07;;;;;;;4.80;3.70;;;12.80;90.30;;;;;;5059317;28;20245;-94
2022/02/13 08:32:58;;;;;;;6.85;4.15;;;12.10;90.10;;;;;;5059077;28;20209;-94
2022/02/13 08:35:25;;;;;;;6.38;3.80;;;12.00;90.80;;;;;;5061568;28;20231;-92
2022/02/13 08:37:53;;;;;;;4.38;3.97;;;12.30;90.00;;;;;;5086920;22;20228;-75
2022/02/13 08:40:20;;;;;;;6.23;4.93;;;12.50;90.20;;;;;;5093475;28;20207;-75
2022/02/13 08:42:46;;;;;;;5.03;4.40;;;13.10;89.70;;;;;;5065936;28;20480;-76
2022/02/13 08:45:13;;;;;;;7.57;3.83;;;13.80;88.40;;;;;;5061905;28;20452;-75
2022/02/13 08:47:40;;;;;;;8.20;4.50;;;14.90;87.00;;;;;;5064933;28;20466;-76
2022/02/13 08:50:07;;;;;;;5.80;4.50;;;15.50;86.00;;;;;;5073017;28;20459;-76
2022/02/13 08:52:34;;;;;;;6.47;3.80;;;15.50;83.70;;;;;;5065898;28;20470;-76
2022/02/13 08:55:02;;;;;;;8.40;4.77;;;16.00;83.90;;;;;;5071794;28;20458;-76
2022/02/13 08:57:29;;;;;;;5.50;4.53;;;16.40;82.60;;;;;;5069472;28;20509;-77
2022/02/13 08:59:56;;;;;;;4.90;4.27;;;17.00;82.00;;;;;;5070937;28;20868;-76
2022/02/13 09:02:23;;;;;;;4.53;4.13;;;16.90;81.00;;;;;;5063370;28;20482;-76
2022/02/13 09:04:49;;;;;;;4.87;4.47;;;16.80;80.60;;;;;;5065114;28;20966;-76
2022/02/13 09:07:16;;;;;;;6.83;4.33;;;17.20;81.10;;;;;;5069934;28;20561;-75
2022/02/13 09:09:43;;;;;;;9.60;4.80;;;17.40;80.70;;;;;;5070547;28;20465;-74
2022/02/13 09:12:15;;;;;;;6.27;4.60;;;17.80;79.20;;;;;;5066577;28;20489;-75
2022/02/13 09:14:41;;;;;;;5.90;4.00;;;18.30;79.00;;;;;;5050562;28;20546;-75
2022/02/13 09:17:08;;;;;;;8.77;4.53;;;18.80;78.50;;;;;;5079723;28;20480;-75
2022/02/13 09:19:35;;;;;;;5.57;4.20;;;18.80;77.10;;;;;;5089947;28;20969;-75
2022/02/13 09:22:02;;;;;;;6.90;4.47;;;18.60;77.80;;;;;;5090092;28;20584;-75
2022/02/13 09:24:28;;;;;;;5.03;4.27;;;18.90;76.70;;;;;;5090212;28;20497;-74
2022/02/13 09:26:55;;;;;;;6.70;4.37;;;18.50;77.80;;;;;;5091844;28;20482;-75
2022/02/13 09:29:23;;;;;;;8.73;4.50;;;18.40;77.30;;;;;;5091122;28;20549;-74
2022/02/13 09:31:50;;;;;;;6.50;4.33;;;18.90;77.20;;;;;;5093309;28;20945;-75
2022/02/13 09:34:18;;;;;;;6.40;4.70;;;18.60;78.00;;;;;;5091571;28;20453;-75
2022/02/13 09:36:47;;;;;;;9.87;4.63;;;18.80;77.40;;;;;;5090467;28;20862;-75
2022/02/13 09:39:14;;;;;;;7.33;4.30;;;19.70;77.70;;;;;;5091292;28;20511;-75
2022/02/13 09:41:41;;;;;;;6.23;4.90;;;19.90;75.60;;;;;;5090845;28;20515;-75
2022/02/13 09:44:09;;;;;;;7.60;4.20;;;19.50;76.20;;;;;;5091294;28;20533;-76
2022/02/13 09:46:38;;;;;;;7.90;4.30;;;19.50;76.90;;;;;;5090643;28;20470;-76
2022/02/13 09:49:06;;;;;;;5.10;4.27;;;18.90;76.20;;;;;;5091034;28;20461;-76
2022/02/13 09:51:33;;;;;;;7.13;4.67;;;19.00;76.20;;;;;;5090515;28;20481;-75
2022/02/13 09:54:01;;;;;;;6.00;4.40;;;19.00;77.30;;;;;;5090945;28;20461;-76
2022/02/13 09:56:30;;;;;;;5.10;4.27;;;19.00;76.60;;;;;;5091071;28;20481;-76
2022/02/13 09:58:59;;;;;;;4.97;3.83;;;19.20;78.00;;;;;;5091280;28;20458;-76
2022/02/13 10:01:39;;;;;;;6.17;4.30;;;19.70;76.30;;;;;;5091408;28;20481;-76
2022/02/13 10:04:09;;;;;;;8.47;4.40;;;20.60;74.60;;;;;;5091116;28;20457;-76
2022/02/13 10:06:37;;;;;;;5.50;4.30;;;20.80;75.70;;;;;;5090430;28;20935;-75
2022/02/13 10:09:05;;;;;;;10.00;4.93;;;21.40;72.90;;;;;;5077526;28;20460;-75
2022/02/13 10:11:33;;;;;;;8.97;5.20;;;21.20;72.50;;;;;;5049469;28;20474;-75
2022/02/13 10:14:03;;;;;;;5.77;5.13;;;20.70;73.70;;;;;;5049590;28;20458;-75
2022/02/13 10:16:32;;;;;;;8.63;5.80;;;21.10;73.80;;;;;;5068870;28;21074;-76
2022/02/13 10:19:02;;;;;;;7.43;5.10;;;21.80;76.40;;;;;;5070926;28;20464;-76
2022/02/13 10:21:36;;;;;;;6.03;4.27;;;21.90;73.80;;;;;;5069290;28;20521;-75
2022/02/13 10:24:13;;;;;;;6.67;4.83;;;22.60;73.70;;;;;;5070568;28;20454;-74
2022/02/13 10:26:40;;;;;;;6.27;5.27;;;23.20;71.20;;;;;;5068826;28;20493;-75
2022/02/13 10:29:08;;;;;;;7.50;4.57;;;22.20;72.10;;;;;;5071524;28;20953;-74
2022/02/13 10:31:35;;;;;;;6.20;3.93;;;22.50;72.30;;;;;;5070841;28;20458;-75
2022/02/13 10:34:02;;;;;;;11.27;5.03;;;22.70;72.30;;;;;;5070872;28;20465;-76
2022/02/13 10:36:29;;;;;;;5.40;4.07;;;22.30;71.00;;;;;;5070089;28;20490;-75
2022/02/13 10:38:58;;;;;;;8.10;5.23;;;22.20;69.60;;;;;;5069581;28;20454;-75
2022/02/13 10:41:27;;;;;;;7.47;4.13;;;20.90;70.50;;;;;;5070914;28;20466;-76
2022/02/13 10:44:02;;;;;;;6.53;3.93;;;20.80;71.50;;;;;;5070319;28;20458;-74
2022/02/13 10:46:31;;;;;;;5.50;4.50;;;19.80;72.10;;;;;;5064455;28;20535;-73
2022/02/13 10:48:59;;;;;;;5.67;4.67;;;19.00;73.50;;;;;;5075583;28;20465;-74
2022/02/13 10:51:26;;;;;;;9.33;4.73;;;18.60;74.40;;;;;;5088931;28;20504;-75
2022/02/13 10:53:55;;;;;;;6.10;4.63;;;19.00;74.60;;;;;;5085632;28;20976;-75
2022/02/13 10:56:23;;;;;;;8.47;4.80;;;19.20;73.70;;;;;;5089851;28;20488;-75
2022/02/13 10:58:55;;;;;;;7.90;4.60;;;20.00;73.20;;;;;;5090461;28;20535;-75
2022/02/13 11:01:24;;;;;;;6.37;4.50;;;21.40;73.50;;;;;;5070992;28;20628;-76
2022/02/13 11:03:53;;;;;;;7.90;4.67;;;22.40;69.10;;;;;;5068773;28;20494;-76
2022/02/13 11:06:20;;;;;;;6.17;4.40;;;22.60;69.40;;;;;;5070541;28;20521;-74
2022/02/13 11:08:53;;;;;;;7.43;4.40;;;22.80;67.70;;;;;;5069912;28;20887;-75
2022/02/13 11:11:20;;;;;;;7.07;4.47;;;22.60;66.80;;;;;;5069503;28;20463;-75
2022/02/13 11:13:48;;;;;;;6.20;4.20;;;22.00;66.30;;;;;;5068036;28;20466;-76
2022/02/13 11:16:29;;;;;;;5.47;4.70;;;21.10;68.10;;;;;;5068528;28;20559;-75
2022/02/13 11:18:59;;;;;;;5.33;4.50;;;20.60;68.80;;;;;;5068361;28;20896;-75
2022/02/13 11:21:29;;;;;;;5.03;4.53;;;20.10;68.80;;;;;;5070053;28;20455;-75
2022/02/13 11:23:57;;;;;;;6.67;4.63;;;18.90;69.60;;;;;;5068087;28;20465;-75
2022/02/13 11:26:39;;;;;;;5.60;3.60;;;18.30;69.40;;;;;;5068831;28;20478;-75
2022/02/13 11:29:08;;;;;;;4.83;4.10;;;17.60;71.90;;;;;;5069528;28;20455;-75
2022/02/13 11:31:42;;;;;;;5.80;4.10;;;17.80;73.00;;;;;;5068327;28;20466;-75
2022/02/13 11:34:13;;;;;;;5.30;4.00;;;18.70;70.70;;;;;;5067689;28;20466;-75
2022/02/13 11:36:44;;;;;;;4.50;4.10;;;19.60;70.20;;;;;;5068171;28;20494;-75
2022/02/13 11:39:11;;;;;;;6.63;4.60;;;20.50;69.60;;;;;;5068397;28;20874;-75
2022/02/13 11:42:11;;;;;;;4.30;3.90;;;21.00;68.20;;;;;;5075692;28;20481;-75
2022/02/13 11:44:59;;;;;;;5.10;4.23;;;21.60;66.70;;;;;;5070970;28;20485;-75
2022/02/13 11:47:40;;;;;;;6.33;4.23;;;21.70;66.10;;;;;;5068130;28;20540;-75
2022/02/13 11:50:25;;;;;;;4.13;3.70;;;21.10;65.50;;;;;;5068112;28;20833;-74
2022/02/13 11:53:04;;;;;;;5.20;3.90;;;18.70;68.20;;;;;;5074049;22;20458;-74
2022/02/13 11:55:35;;;;;;;8.97;4.90;;;18.60;70.00;;;;;;5047281;28;20524;-74
2022/02/13 11:58:04;;;;;;;6.90;3.87;;;19.90;68.10;;;;;;5048896;28;20578;-75
2022/02/13 12:00:41;;;;;;;5.73;4.20;;;20.70;66.70;;;;;;5049430;28;20506;-74
2022/02/13 12:03:13;;;;;;;5.10;4.10;;;21.20;66.50;;;;;;5047199;28;20495;-74
2022/02/13 12:05:40;;;;;;;6.83;3.90;;;19.50;66.60;;;;;;5031817;28;20491;-74
2022/02/13 12:08:07;;;;;;;5.50;3.90;;;18.60;69.70;;;;;;5031775;28;21119;-74
2022/02/13 12:10:36;;;;;;;3.90;3.50;;;19.00;67.60;;;;;;5032270;28;20464;-73
2022/02/13 12:13:21;;;;;;;7.20;4.20;;;18.00;69.10;;;;;;5031629;28;20835;-74
2022/02/13 12:15:54;;;;;;;6.43;3.80;;;16.90;71.10;;;;;;5029619;28;20494;-75
2022/02/13 12:18:21;;;;;;;5.80;3.53;;;17.10;70.30;;;;;;5042513;28;20487;-75
2022/02/13 12:20:48;;;;;;;5.30;3.73;;;17.00;70.70;;;;;;5051877;28;20455;-74
2022/02/13 12:23:18;;;;;;;5.67;4.20;;;16.60;70.60;;;;;;5051278;28;20487;-75
2022/02/13 12:25:46;;;;;;;5.60;4.17;;;16.60;71.70;;;;;;5050951;28;20540;-74
2022/02/13 12:28:15;;;;;;;4.43;3.47;;;17.50;70.40;;;;;;5041446;28;20766;-74
2022/02/13 12:30:48;;;;;;;5.20;4.00;;;18.00;70.00;;;;;;5030687;28;20762;-74
2022/02/13 12:33:18;;;;;;;6.10;3.80;;;17.00;69.90;;;;;;5030795;28;20857;-75
2022/02/13 12:35:46;;;;;;;5.00;3.63;;;16.20;72.80;;;;;;5030692;28;20484;-74
2022/02/13 12:38:13;;;;;;;7.47;4.30;;;16.90;71.80;;;;;;5030742;28;20460;-76
2022/02/13 12:40:44;;;;;;;6.00;4.30;;;16.20;71.80;;;;;;5030653;28;21051;-74
2022/02/13 12:43:15;;;;;;;4.93;3.50;;;15.90;72.40;;;;;;5031586;28;20495;-75
2022/02/13 12:45:42;;;;;;;4.50;3.83;;;15.90;71.90;;;;;;5029871;28;20682;-74
2022/02/13 12:48:11;;;;;;;4.60;3.67;;;15.80;72.80;;;;;;5031870;28;20466;-73
2022/02/13 12:50:41;;;;;;;6.57;4.40;;;15.80;72.90;;;;;;5031021;28;20457;-75
2022/02/13 12:53:09;;;;;;;6.63;3.50;;;16.30;72.30;;;;;;5029722;28;20496;-74
2022/02/13 12:55:39;;;;;;;5.10;4.00;;;17.10;72.10;;;;;;5030526;28;20829;-76
2022/02/13 12:58:06;;;;;;;4.37;3.70;;;17.40;71.90;;;;;;5031361;28;20539;-76